Time;durP1;ratioP1;P1;durP2;ratioP2;P2;SDS_P1;SDS_P2;PMS_P1;PMS_P2;Temp;Humidity;BMP_temperature;BMP_pressure;BME280_temperature;BME280_humidity;BME280_pressure;Samples;Min_cycle;Max_cycle;Signal;HPM_P1;HPM_P2
2022/08/14 18:07:08;;;;;;;3.35;2.38;;;29.10;53.10;;;;;;5096350;27;1314974;-52
2022/08/14 18:09:55;;;;;;;4.18;3.10;;;28.80;54.30;;;;;;5114952;28;20035;-51
2022/08/14 18:12:24;;;;;;;4.53;2.97;;;28.80;54.60;;;;;;5111202;28;20040;-54
2022/08/14 18:14:58;;;;;;;8.18;2.80;;;28.80;54.80;;;;;;5111072;28;20054;-58
2022/08/14 18:17:35;;;;;;;3.50;2.05;;;28.90;54.40;;;;;;5110848;28;20059;-54
2022/08/14 18:20:02;;;;;;;3.33;1.70;;;28.80;55.20;;;;;;5110868;28;20047;-58
2022/08/14 18:22:49;;;;;;;7.45;2.28;;;28.80;56.10;;;;;;5110993;28;20464;-56
2022/08/14 18:25:15;;;;;;;3.97;2.50;;;28.80;56.50;;;;;;5113978;28;20483;-54
2022/08/14 18:27:47;;;;;;;6.30;2.88;;;28.80;55.30;;;;;;5110262;28;20059;-57
2022/08/14 18:30:17;;;;;;;6.65;2.50;;;28.80;54.40;;;;;;5110770;28;20078;-57
2022/08/14 18:33:03;;;;;;;3.22;2.22;;;28.70;54.60;;;;;;5111459;28;20066;-52
2022/08/14 18:35:31;;;;;;;4.32;2.28;;;28.70;55.10;;;;;;5108462;28;20044;-52
2022/08/14 18:38:18;;;;;;;8.32;2.58;;;28.60;55.00;;;;;;5108591;28;20040;-51
2022/08/14 18:41:04;;;;;;;5.20;2.35;;;28.60;55.10;;;;;;5104438;28;20105;-54
2022/08/14 18:43:31;;;;;;;3.88;2.35;;;28.50;55.40;;;;;;5109454;28;20551;-54
2022/08/14 18:45:59;;;;;;;9.07;3.08;;;28.40;55.50;;;;;;5110060;28;20055;-53
2022/08/14 18:48:26;;;;;;;3.95;3.03;;;28.40;55.80;;;;;;5110115;28;20036;-48
2022/08/14 18:51:13;;;;;;;5.07;3.20;;;28.30;55.70;;;;;;5110162;28;20040;-51
2022/08/14 18:53:45;;;;;;;4.32;3.30;;;28.30;56.10;;;;;;5110250;28;20044;-54
2022/08/14 18:56:14;;;;;;;7.13;3.10;;;28.20;56.20;;;;;;5110123;28;20042;-52
2022/08/14 18:58:45;;;;;;;4.50;3.30;;;28.20;56.70;;;;;;5110238;28;20093;-52
2022/08/14 19:01:13;;;;;;;6.22;3.13;;;28.10;56.70;;;;;;5110081;28;20044;-49
2022/08/14 19:03:40;;;;;;;6.90;3.42;;;28.00;56.70;;;;;;5109927;28;20039;-52
2022/08/14 19:06:08;;;;;;;5.60;3.63;;;27.90;57.00;;;;;;5109702;28;20097;-52
2022/08/14 19:08:35;;;;;;;7.75;3.67;;;27.90;57.30;;;;;;5113782;28;20085;-56
2022/08/14 19:11:02;;;;;;;4.78;3.50;;;27.80;57.30;;;;;;5109913;28;20051;-54
2022/08/14 19:13:32;;;;;;;9.80;3.92;;;27.70;57.60;;;;;;5109817;28;20489;-52
2022/08/14 19:16:17;;;;;;;10.55;3.85;;;27.70;58.10;;;;;;5109309;28;20086;-47
2022/08/14 19:18:48;;;;;;;7.53;3.63;;;27.60;58.40;;;;;;5095990;28;20048;-51
2022/08/14 19:21:15;;;;;;;7.32;3.78;;;27.50;58.30;;;;;;5094754;28;20097;-52
2022/08/14 19:23:42;;;;;;;8.52;3.63;;;27.40;58.20;;;;;;5095915;28;20052;-56
2022/08/14 19:26:25;;;;;;;6.50;3.45;;;27.40;58.60;;;;;;5096965;28;20044;-50
2022/08/14 19:29:12;;;;;;;6.25;3.67;;;27.30;58.60;;;;;;5096091;28;20101;-53
2022/08/14 19:31:42;;;;;;;5.70;3.13;;;27.20;59.10;;;;;;5096029;28;20105;-53
2022/08/14 19:34:21;;;;;;;6.78;3.83;;;27.10;59.30;;;;;;5096166;28;20495;-51
2022/08/14 19:36:57;;;;;;;7.82;3.80;;;27.00;59.50;;;;;;5095594;28;20075;-51
2022/08/14 19:39:31;;;;;;;5.53;4.32;;;26.90;59.90;;;;;;5094482;28;20067;-53
2022/08/14 19:41:59;;;;;;;6.50;3.90;;;26.90;60.00;;;;;;5095682;28;20075;-52
2022/08/14 19:44:35;;;;;;;11.70;4.10;;;26.80;60.00;;;;;;5095613;28;20036;-50
2022/08/14 19:47:06;;;;;;;9.45;4.07;;;26.80;59.90;;;;;;5095457;28;20040;-53
2022/08/14 19:49:37;;;;;;;9.40;4.40;;;26.70;60.30;;;;;;5095254;28;20499;-48
2022/08/14 19:52:23;;;;;;;7.45;4.45;;;26.60;60.70;;;;;;5095640;28;20040;-52
2022/08/14 19:54:50;;;;;;;9.25;4.88;;;26.50;60.60;;;;;;5099234;28;20399;-55
2022/08/14 19:57:18;;;;;;;9.65;5.05;;;26.50;61.00;;;;;;5093971;28;20044;-52
2022/08/14 19:59:45;;;;;;;11.90;5.93;;;26.40;61.00;;;;;;5095261;28;20046;-52
2022/08/14 20:02:24;;;;;;;8.77;5.57;;;26.40;61.20;;;;;;5095475;28;20478;-53
2022/08/14 20:04:55;;;;;;;8.90;5.82;;;26.30;61.60;;;;;;5095524;28;20053;-54
2022/08/14 20:07:23;;;;;;;9.95;5.78;;;26.30;61.70;;;;;;5099211;28;20055;-54
2022/08/14 20:09:52;;;;;;;9.20;6.43;;;26.20;62.10;;;;;;5101645;28;20098;-52
2022/08/14 20:12:38;;;;;;;10.27;6.55;;;26.10;62.30;;;;;;5095267;28;20119;-51
2022/08/14 20:15:23;;;;;;;9.15;7.03;;;26.00;62.50;;;;;;5094990;28;20069;-47
2022/08/14 20:17:50;;;;;;;8.55;6.05;;;25.90;62.60;;;;;;5095123;28;20438;-58
2022/08/14 20:20:18;;;;;;;9.93;5.55;;;25.90;63.10;;;;;;5094968;28;20487;-53
2022/08/14 20:22:59;;;;;;;10.95;6.05;;;25.80;63.10;;;;;;5094916;28;20070;-54
2022/08/14 20:25:27;;;;;;;10.77;6.13;;;25.80;63.30;;;;;;5094864;28;20044;-54
2022/08/14 20:27:58;;;;;;;8.82;5.93;;;25.70;63.40;;;;;;5094553;28;20040;-55
2022/08/14 20:30:25;;;;;;;7.18;5.25;;;25.60;63.50;;;;;;5093902;28;20118;-55
2022/08/14 20:33:01;;;;;;;9.32;5.72;;;25.60;63.60;;;;;;5094575;28;20070;-55
2022/08/14 20:35:27;;;;;;;9.48;5.72;;;25.50;63.70;;;;;;5094539;28;20489;-51
2022/08/14 20:38:03;;;;;;;13.60;6.78;;;25.50;63.90;;;;;;5094695;28;20047;-55
2022/08/14 21:31:12;;;;;;;10.00;3.50;;;24.00;67.80;;;;;;5065929;28;20398;-61
2022/08/14 21:33:40;;;;;;;7.18;3.15;;;23.90;66.90;;;;;;5049314;28;20036;-57
2022/08/14 21:36:09;;;;;;;11.30;3.30;;;23.90;66.00;;;;;;5039963;28;20038;-54
2022/08/14 21:38:48;;;;;;;7.25;3.10;;;23.90;66.10;;;;;;5038063;28;20068;-56
2022/08/14 21:41:23;;;;;;;3.85;3.15;;;24.00;66.70;;;;;;5040223;28;20033;-50
2022/08/14 21:44:10;;;;;;;4.95;3.00;;;24.00;66.00;;;;;;5046114;28;20087;-56
2022/08/14 21:46:46;;;;;;;6.95;3.05;;;24.00;65.80;;;;;;5045658;28;20524;-51
2022/08/14 21:49:13;;;;;;;11.13;3.00;;;24.00;65.70;;;;;;5034007;28;20088;-55
2022/08/14 21:51:40;;;;;;;7.35;2.50;;;24.10;66.00;;;;;;5038191;28;20056;-52
2022/08/14 21:54:23;;;;;;;5.35;2.50;;;24.10;65.50;;;;;;5045183;28;20045;-55
2022/08/14 21:56:58;;;;;;;6.78;2.30;;;24.10;65.50;;;;;;5046960;28;20037;-48
2022/08/14 21:59:27;;;;;;;6.00;2.33;;;24.10;65.80;;;;;;5039275;28;20492;-52
2022/08/14 22:01:55;;;;;;;4.30;1.98;;;24.10;65.20;;;;;;5040509;28;20048;-54
2022/08/14 22:04:28;;;;;;;3.42;1.92;;;24.20;65.50;;;;;;5030572;28;20455;-54
2022/08/14 22:06:59;;;;;;;6.35;2.20;;;24.10;65.50;;;;;;5030212;28;20061;-51
2022/08/14 22:09:26;;;;;;;4.78;2.40;;;24.10;65.60;;;;;;5039155;28;20475;-51
2022/08/14 22:12:02;;;;;;;5.45;2.25;;;24.10;65.50;;;;;;5034087;28;20115;-50
2022/08/14 22:14:32;;;;;;;4.50;1.98;;;24.00;65.60;;;;;;5030115;28;20101;-54
2022/08/14 22:17:09;;;;;;;2.97;1.95;;;24.00;65.80;;;;;;5034279;28;20440;-51
2022/08/14 22:19:42;;;;;;;5.45;2.10;;;24.00;65.90;;;;;;5030008;28;20120;-54
2022/08/14 22:22:20;;;;;;;4.68;1.95;;;23.90;66.30;;;;;;5046342;28;20041;-49
2022/08/14 22:24:47;;;;;;;5.22;1.90;;;23.80;66.40;;;;;;5035728;28;20485;-52
2022/08/14 22:27:19;;;;;;;3.03;1.95;;;23.70;66.30;;;;;;5043749;28;20048;-49
2022/08/14 22:29:46;;;;;;;4.53;2.05;;;23.70;66.40;;;;;;5048059;28;20041;-50
2022/08/14 22:32:21;;;;;;;3.03;2.08;;;23.60;66.50;;;;;;5043692;28;20033;-54
2022/08/14 22:35:08;;;;;;;5.65;2.20;;;23.60;66.80;;;;;;5047925;28;20119;-54
2022/08/14 22:37:35;;;;;;;3.38;2.20;;;23.50;66.90;;;;;;5041900;28;20053;-51
2022/08/14 22:40:05;;;;;;;7.15;2.10;;;23.40;67.00;;;;;;5038857;28;20132;-55
2022/08/14 22:42:54;;;;;;;4.35;2.55;;;23.40;67.30;;;;;;5022999;28;20073;-56
2022/08/14 22:45:26;;;;;;;8.02;2.25;;;23.40;67.40;;;;;;5017566;28;20100;-52
2022/08/14 22:48:03;;;;;;;4.72;2.50;;;23.40;67.50;;;;;;5016609;28;20046;-52
2022/08/14 22:50:30;;;;;;;4.93;2.22;;;23.30;67.60;;;;;;5016669;28;20095;-55
2022/08/14 22:52:59;;;;;;;4.80;2.22;;;23.30;67.90;;;;;;5016761;28;20092;-54
2022/08/14 22:55:26;;;;;;;5.00;2.15;;;23.30;67.90;;;;;;5016332;28;20065;-49
2022/08/14 22:57:53;;;;;;;4.05;1.92;;;23.20;68.30;;;;;;5022903;28;20037;-47
2022/08/14 23:00:22;;;;;;;7.90;2.45;;;23.20;68.30;;;;;;5031216;28;20061;-54
2022/08/14 23:02:56;;;;;;;4.45;2.25;;;23.20;68.30;;;;;;5035568;28;20103;-51
2022/08/14 23:05:26;;;;;;;3.88;2.20;;;23.10;68.70;;;;;;5025596;28;20045;-53
2022/08/14 23:08:05;;;;;;;5.47;2.20;;;23.10;68.60;;;;;;5016180;28;20520;-53
2022/08/14 23:10:52;;;;;;;6.20;2.47;;;23.00;68.70;;;;;;5030366;28;20053;-49
2022/08/14 23:13:19;;;;;;;6.13;2.55;;;23.00;69.30;;;;;;5034467;28;20033;-54
2022/08/14 23:15:46;;;;;;;3.40;2.13;;;22.80;69.00;;;;;;5028752;28;20473;-54
2022/08/14 23:18:13;;;;;;;2.63;1.88;;;22.90;69.20;;;;;;5025988;28;20041;-50
2022/08/14 23:20:41;;;;;;;4.70;1.95;;;22.80;68.70;;;;;;5016191;28;20045;-49
2022/08/14 23:23:09;;;;;;;5.90;2.00;;;22.80;68.90;;;;;;5014830;28;20046;-50
2022/08/14 23:25:37;;;;;;;3.33;1.85;;;22.70;68.60;;;;;;5021259;28;20443;-51
2022/08/14 23:28:23;;;;;;;6.60;2.28;;;22.70;68.60;;;;;;5033415;28;20045;-49
2022/08/14 23:31:11;;;;;;;3.03;2.03;;;22.60;68.90;;;;;;5018081;28;20503;-52
2022/08/14 23:33:39;;;;;;;7.95;2.17;;;22.60;68.90;;;;;;5023854;28;20481;-54
2022/08/14 23:36:17;;;;;;;7.38;2.33;;;22.60;69.10;;;;;;5034397;28;20503;-47
2022/08/14 23:39:02;;;;;;;3.58;2.38;;;22.60;70.20;;;;;;5024958;28;20053;-54
2022/08/14 23:41:35;;;;;;;5.78;2.22;;;22.50;70.00;;;;;;5027147;28;20049;-52
2022/08/14 23:44:12;;;;;;;6.03;2.90;;;22.50;70.10;;;;;;5022129;28;20096;-50
2022/08/14 23:46:39;;;;;;;5.38;2.30;;;22.40;70.30;;;;;;5021474;28;20038;-58
2022/08/14 23:49:09;;;;;;;7.55;2.30;;;22.40;70.60;;;;;;5033795;28;20049;-54
2022/08/14 23:51:38;;;;;;;3.78;2.38;;;22.30;71.60;;;;;;5014111;28;20096;-54
2022/08/14 23:54:05;;;;;;;5.38;2.42;;;22.20;71.40;;;;;;5014261;28;20034;-54
2022/08/14 23:56:52;;;;;;;6.47;2.70;;;22.20;71.80;;;;;;5015311;28;20050;-52
2022/08/14 23:59:29;;;;;;;6.18;2.58;;;22.10;71.60;;;;;;5022761;28;20038;-49
